Aviation Digital Data Service (ADDS)

Output produced by METARs form (1859 UTC 23 April 2018)
found at http://aviationweather.gov/adds/metars/
 
METAR text: KDTL 231855Z AUTO 25006KT 10SM CLR 18/03 A3017 RMK AO2
Conditions at: KDTL (DETROIT LAKES , MN, US) observed 1855 UTC 23 April 2018
Temperature: 18.0°C (64°F)
Dewpoint: 3.0°C (37°F) [RH = 37%]
Pressure (altimeter): 30.17 inches Hg (1021.8 mb)
Winds: from the WSW (250 degrees) at 7 MPH (6 knots; 3.1 m/s)
Visibility: 10 or more miles (16+ km)
Ceiling: at least 12,000 feet AGL
Clouds: sky clear below 12,000 feet AGL
Weather: automated observation with no human augmentation;
there may or may not be significant weather present at this time